createdAt,value
2023-03-27T00:02:16.615Z,99829.16
2023-03-27T00:07:13.083Z,99837.72
2023-03-27T00:12:09.579Z,99843.16
2023-03-27T00:17:06.035Z,99857.06
2023-03-27T00:22:02.395Z,99871.09
2023-03-27T00:26:58.754Z,99866.13
2023-03-27T00:31:55.104Z,99880.19
2023-03-27T00:36:53.663Z,99883.41
2023-03-27T00:41:50.064Z,99883.56
2023-03-27T00:46:46.642Z,99888.19
2023-03-27T00:51:49.673Z,99894.44
2023-03-27T00:56:46.125Z,99895.34
2023-03-27T01:01:44.556Z,99909.53
2023-03-27T01:06:42.341Z,99917.16
2023-03-27T01:12:03.333Z,99923.25
2023-03-27T01:17:06.567Z,99930.69
2023-03-27T01:22:41.657Z,99938.94
2023-03-27T01:28:08.461Z,99934.63
2023-03-27T01:33:34.268Z,99949.22
2023-03-27T01:38:52.216Z,99957.22
2023-03-27T01:43:57.386Z,99967.06
2023-03-27T01:49:02.915Z,99975.22
2023-03-27T01:54:05.013Z,99976.38
2023-03-27T01:59:09.347Z,99982.56
2023-03-27T02:04:13.385Z,99984.59
2023-03-27T02:09:20.496Z,99985.06
2023-03-27T02:14:48.202Z,99994.25
2023-03-27T02:19:51.140Z,100007.88
2023-03-27T02:24:48.945Z,100019.84
2023-03-27T02:29:56.647Z,100024.56
2023-03-27T02:35:23.008Z,100024.13
2023-03-27T02:40:25.727Z,100035.59
2023-03-27T02:45:37.291Z,100043.78
2023-03-27T02:50:39.435Z,100053.81
2023-03-27T02:55:41.262Z,100054.09
2023-03-27T03:00:44.998Z,100063.13
2023-03-27T03:05:41.967Z,100065.81
2023-03-27T03:10:46.020Z,100075.56
2023-03-27T03:15:42.519Z,100085.09
2023-03-27T03:20:40.059Z,100087.66
2023-03-27T03:25:36.404Z,100103.44
2023-03-27T03:30:32.830Z,100109.59
2023-03-27T03:35:29.289Z,100115.94
2023-03-27T03:40:25.981Z,100128.06
2023-03-27T03:45:22.369Z,100131.75
2023-03-27T03:50:18.786Z,100141.47
2023-03-27T03:55:16.145Z,100157.28
2023-03-27T04:00:12.948Z,100162.84
2023-03-27T04:05:10.286Z,100161.25
2023-03-27T04:10:08.779Z,100176.91
2023-03-27T04:15:05.817Z,100179.66
2023-03-27T04:20:02.546Z,100199.72
2023-03-27T04:24:59.249Z,100192.09
2023-03-27T04:29:55.680Z,100187.75
2023-03-27T04:34:54.253Z,100194.13
2023-03-27T04:39:50.670Z,100209.94
2023-03-27T04:44:47.657Z,100219.50
2023-03-27T04:49:46.992Z,100228.34
2023-03-27T04:54:44.103Z,100238.06
2023-03-27T04:59:40.438Z,100236.44
2023-03-27T05:04:36.791Z,100240.88
2023-03-27T05:09:33.176Z,100246.28
2023-03-27T05:14:29.528Z,100251.03
2023-03-27T05:19:26.788Z,100258.25
2023-03-27T05:24:23.368Z,100262.03
2023-03-27T05:29:19.824Z,100272.88
2023-03-27T05:34:16.183Z,100278.09
2023-03-27T05:39:12.905Z,100285.69
2023-03-27T05:44:09.273Z,100305.25
2023-03-27T05:49:05.681Z,100308.28
2023-03-27T05:54:02.054Z,100308.38
2023-03-27T05:58:58.455Z,100298.16
2023-03-27T06:03:56.127Z,100293.50
2023-03-27T06:08:53.207Z,100301.25
2023-03-27T06:13:49.797Z,100307.88
2023-03-27T06:18:47.702Z,100313.41
2023-03-27T06:23:44.205Z,100329.56
2023-03-27T06:28:40.654Z,100333.09
2023-03-27T06:33:39.830Z,100333.91
2023-03-27T06:38:37.227Z,100349.53
2023-03-27T06:43:33.576Z,100353.44
2023-03-27T06:48:30.044Z,100355.31
2023-03-27T06:53:28.329Z,100373.00
2023-03-27T06:58:25.585Z,100369.50
2023-03-27T07:03:23.988Z,100378.88
2023-03-27T07:08:24.739Z,100382.91
2023-03-27T07:13:21.783Z,100386.94
2023-03-27T07:18:18.225Z,100382.97
2023-03-27T07:23:14.621Z,100392.72
2023-03-27T07:28:14.987Z,100384.97
2023-03-27T07:33:12.386Z,100398.50
2023-03-27T07:38:09.738Z,100404.09
2023-03-27T07:43:09.068Z,100408.94
2023-03-27T07:48:08.419Z,100401.81
2023-03-27T07:53:06.562Z,100424.38
2023-03-27T07:58:04.017Z,100412.38
2023-03-27T08:03:09.286Z,100405.84
2023-03-27T08:08:05.956Z,100417.03
2023-03-27T08:13:02.423Z,100426.75
2023-03-27T08:17:59.459Z,100430.38
2023-03-27T08:22:56.295Z,100431.94
2023-03-27T08:27:52.850Z,100420.25
2023-03-27T08:32:49.589Z,100428.91
2023-03-27T08:37:46.483Z,100425.53
2023-03-27T08:42:46.148Z,100427.69
2023-03-27T08:47:49.310Z,100431.47
2023-03-27T08:52:46.662Z,100439.56
2023-03-27T08:57:43.845Z,100454.41
2023-03-27T09:02:57.007Z,100452.53
2023-03-27T09:08:11.780Z,100454.94
2023-03-27T09:13:46.994Z,100455.06
2023-03-27T09:19:14.188Z,100473.31
2023-03-27T09:24:29.403Z,100466.06
2023-03-27T09:29:29.942Z,100462.63
2023-03-27T09:34:29.324Z,100467.66
2023-03-27T09:39:33.879Z,100474.25
2023-03-27T09:44:36.330Z,100456.00
2023-03-27T09:49:33.649Z,100480.50
2023-03-27T09:54:31.702Z,100473.78
2023-03-27T09:59:33.392Z,100484.09
2023-03-27T10:04:30.146Z,100480.91
2023-03-27T10:09:29.850Z,100485.19
2023-03-27T10:14:26.991Z,100490.16
2023-03-27T10:19:37.125Z,100501.72
2023-03-27T10:24:36.477Z,100494.00
2023-03-27T10:29:41.576Z,100494.84
2023-03-27T10:34:57.308Z,100492.63
2023-03-27T10:40:00.271Z,100497.16
2023-03-27T10:44:57.560Z,100511.19
2023-03-27T10:50:01.743Z,100508.25
2023-03-27T10:55:01.305Z,100517.91
2023-03-27T11:00:13.665Z,100519.06
2023-03-27T11:05:14.058Z,100530.16
2023-03-27T11:10:18.330Z,100518.53
2023-03-27T11:15:22.473Z,100499.84
2023-03-27T11:20:27.812Z,100507.75
2023-03-27T11:25:36.436Z,100519.66
2023-03-27T11:30:39.021Z,100564.97
2023-03-27T11:35:41.353Z,100600.84
2023-03-27T11:40:48.377Z,100584.91
2023-03-27T11:46:02.357Z,100568.25
2023-03-27T11:51:08.768Z,100556.75
2023-03-27T11:56:29.668Z,100548.16
2023-03-27T12:01:50.956Z,100556.09
2023-03-27T12:07:04.374Z,100560.88
2023-03-27T12:12:13.434Z,100551.47
2023-03-27T12:17:31.978Z,100583.09
2023-03-27T12:22:34.432Z,100533.06
2023-03-27T12:28:23.081Z,100521.47
2023-03-27T12:33:45.272Z,100532.97
2023-03-27T12:38:43.548Z,100536.91
2023-03-27T12:43:46.125Z,100534.31
2023-03-27T12:48:52.781Z,100541.31
2023-03-27T12:53:56.190Z,100561.41
2023-03-27T12:58:55.094Z,100568.88
2023-03-27T13:04:22.563Z,100569.88
2023-03-27T13:09:32.118Z,100558.97
2023-03-27T13:14:45.020Z,100573.13
2023-03-27T13:19:49.281Z,100571.19
2023-03-27T13:25:04.270Z,100589.81
2023-03-27T13:30:00.930Z,100607.56
2023-03-27T13:35:19.012Z,100626.72
2023-03-27T13:40:23.298Z,100618.34
2023-03-27T13:45:36.423Z,100604.88
2023-03-27T13:51:02.275Z,100616.38
2023-03-27T13:56:14.780Z,100625.53
2023-03-27T14:01:34.210Z,100647.66
2023-03-27T14:07:04.745Z,100635.34
2023-03-27T14:12:18.110Z,100638.50
2023-03-27T14:17:46.885Z,100634.94
2023-03-27T14:22:48.839Z,100646.97
2023-03-27T14:27:50.996Z,100662.16
2023-03-27T14:32:49.057Z,100680.78
2023-03-27T14:37:45.548Z,100689.91
2023-03-27T14:42:46.603Z,100682.06
2023-03-27T14:47:43.201Z,100666.16
2023-03-27T14:52:40.109Z,100658.38
2023-03-27T14:57:38.804Z,100668.63
2023-03-27T15:02:35.313Z,100670.31
2023-03-27T15:07:35.944Z,100675.34
2023-03-27T15:12:34.337Z,100689.75
2023-03-27T15:17:34.855Z,100696.91
2023-03-27T15:22:35.999Z,100687.03
2023-03-27T15:27:38.247Z,100682.22
2023-03-27T15:32:44.677Z,100689.13
2023-03-27T15:37:42.751Z,100688.38
2023-03-27T15:42:53.290Z,100679.22
2023-03-27T15:48:05.504Z,100675.56
2023-03-27T15:53:02.359Z,100685.03
2023-03-27T15:58:00.201Z,100690.47
2023-03-27T16:02:56.652Z,100690.59
2023-03-27T16:07:53.530Z,100696.16
2023-03-27T16:12:55.175Z,100706.25
2023-03-27T16:17:52.031Z,100717.38
2023-03-27T16:22:49.672Z,100721.66
2023-03-27T16:27:49.330Z,100712.16
2023-03-27T16:32:46.708Z,100716.09
2023-03-27T16:37:43.228Z,100729.94
2023-03-27T16:42:39.650Z,100713.88
2023-03-27T16:47:36.321Z,100732.06
2023-03-27T16:52:32.779Z,100752.00
2023-03-27T16:57:29.208Z,100764.91
2023-03-27T17:02:26.605Z,100759.13
2023-03-27T17:07:27.140Z,100788.47
2023-03-27T17:12:23.638Z,100775.00
2023-03-27T17:17:20.147Z,100780.44
2023-03-27T17:22:16.537Z,100786.81
2023-03-27T17:27:12.889Z,100796.88
2023-03-27T17:32:09.352Z,100804.31
2023-03-27T17:37:06.068Z,100823.78
2023-03-27T17:42:02.421Z,100825.91
2023-03-27T17:47:00.231Z,100832.47
2023-03-27T17:51:56.750Z,100839.47
2023-03-27T17:56:53.087Z,100843.94
2023-03-27T18:01:49.532Z,100846.00
2023-03-27T18:06:46.474Z,100863.63
2023-03-27T18:11:42.773Z,100868.97
2023-03-27T18:16:39.192Z,100867.28
2023-03-27T18:21:35.948Z,100881.09
2023-03-27T18:26:32.297Z,100884.16
2023-03-27T18:31:29.269Z,100887.84
2023-03-27T18:36:25.839Z,100891.03
2023-03-27T18:41:22.222Z,100893.13
2023-03-27T18:46:18.656Z,100903.03
2023-03-27T18:51:17.444Z,100922.38
2023-03-27T18:56:13.799Z,100915.06
2023-03-27T19:01:10.574Z,100917.78
2023-03-27T19:06:09.644Z,100921.84
2023-03-27T19:11:06.395Z,100923.13
2023-03-27T19:16:14.074Z,100924.25
2023-03-27T19:21:12.126Z,100929.81
2023-03-27T19:26:10.361Z,100939.94
2023-03-27T19:31:08.407Z,100934.97
2023-03-27T19:36:05.371Z,100936.13
2023-03-27T19:41:02.598Z,100950.75
2023-03-27T19:46:14.105Z,100949.91
2023-03-27T19:51:11.926Z,100952.72
2023-03-27T19:56:08.298Z,100959.47
2023-03-27T20:01:04.906Z,100963.53
2023-03-27T20:06:07.632Z,100965.69
2023-03-27T20:11:06.850Z,100964.63
2023-03-27T20:16:04.869Z,100970.81
2023-03-27T20:21:02.022Z,100972.47
2023-03-27T20:26:00.567Z,100977.56
2023-03-27T20:31:02.868Z,100969.63
2023-03-27T20:35:59.437Z,100973.94
2023-03-27T20:40:56.364Z,100982.41
2023-03-27T20:45:55.173Z,100974.47
2023-03-27T20:50:52.779Z,100981.81
2023-03-27T20:55:59.195Z,100989.16
2023-03-27T21:00:58.626Z,100986.88
2023-03-27T21:05:54.922Z,100996.22
2023-03-27T21:10:55.125Z,100997.63
2023-03-27T21:15:51.443Z,100998.84
2023-03-27T21:20:47.788Z,101002.28
2023-03-27T21:25:45.048Z,101001.91
2023-03-27T21:30:47.000Z,101007.97
2023-03-27T21:35:46.756Z,101002.38
2023-03-27T21:40:44.823Z,101000.78
2023-03-27T21:45:41.326Z,101007.84
2023-03-27T21:50:37.754Z,101011.25
2023-03-27T21:55:34.730Z,101011.84
2023-03-27T22:00:31.717Z,101011.78
2023-03-27T22:05:28.185Z,101008.53
2023-03-27T22:10:24.493Z,101007.75
2023-03-27T22:15:20.865Z,101008.84
2023-03-27T22:20:17.305Z,101011.59
2023-03-27T22:25:14.365Z,101019.53
2023-03-27T22:30:11.028Z,101017.72
2023-03-27T22:35:08.093Z,101028.03
2023-03-27T22:40:06.287Z,101039.50
2023-03-27T22:45:04.390Z,101033.34
2023-03-27T22:50:02.301Z,101048.50
2023-03-27T22:54:58.708Z,101048.50
2023-03-27T22:59:55.213Z,101059.97
2023-03-27T23:04:51.592Z,101058.19
2023-03-27T23:09:47.939Z,101065.75
2023-03-27T23:14:44.256Z,101073.63
2023-03-27T23:19:41.102Z,101082.94
2023-03-27T23:24:37.515Z,101076.47
2023-03-27T23:29:34.285Z,101085.91
2023-03-27T23:34:30.837Z,101091.06
2023-03-27T23:39:27.207Z,101088.59
2023-03-27T23:44:23.490Z,101098.34
2023-03-27T23:49:19.768Z,101100.31
2023-03-27T23:54:16.250Z,101108.44
2023-03-27T23:59:12.686Z,101115.47
